createdAt,value
2022-10-18T00:00:34.360Z,91.19
2022-10-18T00:01:36.829Z,91.23
2022-10-18T00:02:38.395Z,90.98
2022-10-18T00:04:47.733Z,91.11
2022-10-18T00:05:51.564Z,91.30
2022-10-18T00:06:53.097Z,91.32
2022-10-18T00:07:55.563Z,91.20
2022-10-18T00:08:58.463Z,91.18
2022-10-18T00:10:00.964Z,91.17
2022-10-18T00:11:02.589Z,91.39
2022-10-18T00:12:05.337Z,91.24
2022-10-18T00:13:06.947Z,91.39
2022-10-18T00:14:09.608Z,91.43
2022-10-18T00:15:12.012Z,91.33
2022-10-18T00:16:16.730Z,91.36
2022-10-18T00:17:18.274Z,91.35
2022-10-18T00:18:20.928Z,91.47
2022-10-18T00:19:25.905Z,91.63
2022-10-18T00:20:31.341Z,91.34
2022-10-18T00:21:33.113Z,91.32
2022-10-18T00:22:36.526Z,91.43
2022-10-18T00:23:38.442Z,91.39
2022-10-18T00:24:42.299Z,91.56
2022-10-18T00:25:43.843Z,91.42
2022-10-18T00:26:46.401Z,91.32
2022-10-18T00:27:48.172Z,91.24
2022-10-18T00:28:53.637Z,91.48
2022-10-18T00:29:55.245Z,91.59
2022-10-18T00:30:58.193Z,91.55
2022-10-18T00:32:00.057Z,91.60
2022-10-18T00:33:02.559Z,91.68
2022-10-18T00:34:07.054Z,91.65
2022-10-18T00:35:10.510Z,91.79
2022-10-18T00:36:13.327Z,91.74
2022-10-18T00:37:16.114Z,91.58
2022-10-18T00:38:17.719Z,91.61
2022-10-18T00:39:21.961Z,91.59
2022-10-18T00:40:24.872Z,91.52
2022-10-18T00:41:29.760Z,91.66
2022-10-18T00:42:34.472Z,91.59
2022-10-18T00:43:52.858Z,91.67
2022-10-18T00:45:12.553Z,91.87
2022-10-18T00:46:15.015Z,91.68
2022-10-18T00:47:18.212Z,91.86
2022-10-18T00:48:21.793Z,91.72
2022-10-18T00:49:27.735Z,91.93
2022-10-18T00:50:34.970Z,91.67
2022-10-18T00:51:41.970Z,91.60
2022-10-18T00:52:47.833Z,91.76
2022-10-18T00:53:49.624Z,91.68
2022-10-18T00:54:53.872Z,91.76
2022-10-18T00:55:57.502Z,91.95
2022-10-18T00:57:00.425Z,91.77
2022-10-18T00:58:03.417Z,91.86
2022-10-18T00:59:05.983Z,91.68
2022-10-18T01:00:09.923Z,91.83
2022-10-18T01:01:17.794Z,91.83
2022-10-18T01:02:19.679Z,91.70
2022-10-18T01:03:22.212Z,91.63
2022-10-18T01:04:23.935Z,91.98
2022-10-18T01:05:27.052Z,92.01
2022-10-18T01:06:29.034Z,91.56
2022-10-18T01:08:03.631Z,91.85
2022-10-18T01:09:15.058Z,91.93
2022-10-18T01:10:26.681Z,91.89
2022-10-18T01:11:43.649Z,91.91
2022-10-18T01:13:05.745Z,91.92
2022-10-18T01:14:19.582Z,91.95
2022-10-18T01:15:27.740Z,92.01
2022-10-18T01:16:37.411Z,92.19
2022-10-18T01:17:48.085Z,91.96
2022-10-18T01:18:55.851Z,91.97
2022-10-18T01:20:23.197Z,92.08
2022-10-18T01:21:38.247Z,92.02
2022-10-18T01:22:44.532Z,92.13
2022-10-18T01:24:26.731Z,92.03
2022-10-18T01:25:40.656Z,91.93
2022-10-18T01:27:11.137Z,92.02
2022-10-18T01:28:29.166Z,92.19
2022-10-18T01:29:46.161Z,91.98
2022-10-18T01:30:58.014Z,92.13
2022-10-18T01:32:02.506Z,92.20
2022-10-18T01:33:10.241Z,92.07
2022-10-18T01:34:16.458Z,92.23
2022-10-18T01:35:23.940Z,92.25
2022-10-18T01:36:32.491Z,92.15
2022-10-18T01:37:35.946Z,92.33
2022-10-18T01:38:40.520Z,92.28
2022-10-18T01:39:45.628Z,92.14
2022-10-18T01:40:51.332Z,92.23
2022-10-18T01:41:54.588Z,92.20
2022-10-18T01:42:57.235Z,92.17
2022-10-18T01:44:01.892Z,92.26
2022-10-18T01:45:05.337Z,92.24
2022-10-18T01:46:09.339Z,92.32
2022-10-18T01:47:13.353Z,92.50
2022-10-18T01:48:16.378Z,92.40
2022-10-18T01:49:18.876Z,92.37
2022-10-18T01:50:29.127Z,92.35
2022-10-18T01:51:33.440Z,92.41
2022-10-18T01:52:35.048Z,92.34
2022-10-18T01:53:37.517Z,92.41
2022-10-18T01:54:42.897Z,92.25
2022-10-18T01:55:53.915Z,92.27
2022-10-18T01:56:59.686Z,92.37
2022-10-18T01:58:09.361Z,92.48
2022-10-18T01:59:25.110Z,92.22
2022-10-18T02:00:36.202Z,92.38
2022-10-18T02:01:51.804Z,92.48
2022-10-18T02:02:59.188Z,92.50
2022-10-18T02:04:12.444Z,92.43
2022-10-18T02:05:23.724Z,92.41
2022-10-18T02:06:32.147Z,92.59
2022-10-18T02:07:38.205Z,92.55
2022-10-18T02:08:46.533Z,92.63
2022-10-18T02:09:57.331Z,92.60
2022-10-18T02:11:02.861Z,92.49
2022-10-18T02:12:07.204Z,92.66
2022-10-18T02:13:11.238Z,92.48
2022-10-18T02:14:17.015Z,92.50
2022-10-18T02:15:23.436Z,92.62
2022-10-18T02:16:30.932Z,92.53
2022-10-18T02:17:33.940Z,92.62
2022-10-18T02:18:41.168Z,92.44
2022-10-18T02:19:46.170Z,92.48
2022-10-18T02:20:50.214Z,92.58
2022-10-18T02:21:54.869Z,92.25
2022-10-18T02:22:58.283Z,92.44
2022-10-18T02:24:02.391Z,92.53
2022-10-18T02:25:10.639Z,92.57
2022-10-18T02:26:12.942Z,92.54
2022-10-18T02:27:15.615Z,92.51
2022-10-18T02:28:17.365Z,92.61
2022-10-18T02:29:22.759Z,92.64
2022-10-18T02:30:30.329Z,92.56
2022-10-18T02:31:36.990Z,92.61
2022-10-18T02:32:44.724Z,92.55
2022-10-18T02:33:54.191Z,92.81
2022-10-18T02:35:00.651Z,92.62
2022-10-18T02:36:08.813Z,92.78
2022-10-18T02:37:11.785Z,92.83
2022-10-18T02:38:18.287Z,92.64
2022-10-18T02:39:23.024Z,92.67
2022-10-18T02:40:26.550Z,92.88
2022-10-18T02:41:30.472Z,92.86
2022-10-18T02:42:37.318Z,92.93
2022-10-18T02:43:38.896Z,92.94
2022-10-18T02:44:41.437Z,92.80
2022-10-18T02:45:43.070Z,92.90
2022-10-18T02:46:46.324Z,92.97
2022-10-18T02:47:49.250Z,92.90
2022-10-18T02:48:52.021Z,92.88
2022-10-18T02:49:53.750Z,93.01
2022-10-18T02:50:56.248Z,92.95
2022-10-18T02:51:57.884Z,92.81
2022-10-18T02:53:00.447Z,93.16
2022-10-18T02:54:01.990Z,93.28
2022-10-18T02:55:05.743Z,93.15
2022-10-18T02:56:07.795Z,93.13
2022-10-18T02:57:10.318Z,93.24
2022-10-18T02:58:11.870Z,93.15
2022-10-18T02:59:14.967Z,93.35
2022-10-18T03:00:16.775Z,93.31
2022-10-18T03:01:19.306Z,93.20
2022-10-18T03:02:20.865Z,93.38
2022-10-18T03:03:24.990Z,93.28
2022-10-18T03:05:34.004Z,93.40
2022-10-18T03:06:36.286Z,93.48
2022-10-18T03:07:38.804Z,93.43
2022-10-18T03:08:40.304Z,93.49
2022-10-18T03:09:42.801Z,93.66
2022-10-18T03:10:45.088Z,93.75
2022-10-18T03:11:47.591Z,93.58
2022-10-18T03:12:49.117Z,93.79
2022-10-18T03:13:51.696Z,93.57
2022-10-18T03:14:53.591Z,93.66
2022-10-18T03:15:56.271Z,93.64
2022-10-18T03:16:58.792Z,93.76
2022-10-18T03:18:00.373Z,93.78
2022-10-18T03:19:04.242Z,93.75
2022-10-18T03:20:06.747Z,93.66
2022-10-18T03:21:09.759Z,93.88
2022-10-18T03:22:11.309Z,93.75
2022-10-18T03:23:13.851Z,93.77
2022-10-18T03:24:15.804Z,93.97
2022-10-18T03:25:18.444Z,94.04
2022-10-18T03:26:21.441Z,94.01
2022-10-18T03:27:23.983Z,93.96
2022-10-18T03:28:25.643Z,93.96
2022-10-18T03:29:28.804Z,93.93
2022-10-18T03:30:30.588Z,94.01
2022-10-18T03:31:33.657Z,94.02
2022-10-18T03:32:35.642Z,94.08
2022-10-18T03:33:38.204Z,94.08
2022-10-18T03:34:41.164Z,94.10
2022-10-18T03:35:43.661Z,94.04
2022-10-18T03:36:46.246Z,94.22
2022-10-18T03:37:47.797Z,94.16
2022-10-18T03:38:50.253Z,94.03
2022-10-18T03:39:51.745Z,94.09
2022-10-18T03:40:54.288Z,94.14
2022-10-18T03:41:55.854Z,94.23
2022-10-18T03:42:58.371Z,94.25
2022-10-18T03:43:59.885Z,94.10
2022-10-18T03:45:02.553Z,94.28
2022-10-18T03:46:04.209Z,94.30
2022-10-18T03:47:10.510Z,94.26
2022-10-18T03:48:12.205Z,94.65
2022-10-18T03:49:14.855Z,94.36
2022-10-18T03:50:17.936Z,94.34
2022-10-18T03:51:20.469Z,94.32
2022-10-18T03:52:21.988Z,94.29
2022-10-18T03:53:24.513Z,94.50
2022-10-18T03:54:26.095Z,94.33
2022-10-18T03:55:28.615Z,94.45
2022-10-18T03:56:30.184Z,94.51
2022-10-18T03:57:32.732Z,94.38
2022-10-18T03:59:41.769Z,94.66
2022-10-18T04:00:43.407Z,94.60
2022-10-18T04:01:46.040Z,94.54
2022-10-18T04:02:50.793Z,94.64
2022-10-18T04:03:55.924Z,94.60
2022-10-18T04:04:58.696Z,94.67
2022-10-18T04:06:03.558Z,94.63
2022-10-18T04:07:05.112Z,94.58
2022-10-18T04:08:07.602Z,94.59
2022-10-18T04:09:10.415Z,94.59
2022-10-18T04:10:13.100Z,94.53
2022-10-18T04:11:15.097Z,94.75
2022-10-18T04:12:17.575Z,94.74
2022-10-18T04:13:19.173Z,94.81
2022-10-18T04:14:22.004Z,94.70
2022-10-18T04:15:23.585Z,94.87
2022-10-18T04:16:26.243Z,94.75
2022-10-18T04:17:27.857Z,94.76
2022-10-18T04:18:30.429Z,94.82
2022-10-18T04:19:31.945Z,94.79
2022-10-18T04:20:34.518Z,94.99
2022-10-18T04:21:37.419Z,95.09
2022-10-18T04:22:40.148Z,95.06
2022-10-18T04:23:41.733Z,95.15
2022-10-18T04:24:44.262Z,94.91
2022-10-18T04:25:45.824Z,94.94
2022-10-18T04:26:48.393Z,94.97
2022-10-18T04:27:49.952Z,95.01
2022-10-18T04:28:52.501Z,95.14
2022-10-18T04:29:54.066Z,94.94
2022-10-18T04:30:56.528Z,95.00
2022-10-18T04:31:58.068Z,94.97
2022-10-18T04:33:00.639Z,95.06
2022-10-18T04:34:02.726Z,95.10
2022-10-18T04:35:06.790Z,95.04
2022-10-18T04:36:08.517Z,95.30
2022-10-18T04:37:12.372Z,95.05
2022-10-18T04:38:14.690Z,95.12
2022-10-18T04:39:17.419Z,95.13
2022-10-18T04:40:19.894Z,95.22
2022-10-18T04:41:22.434Z,95.28
2022-10-18T04:42:24.481Z,95.07
2022-10-18T04:43:26.987Z,95.25
2022-10-18T04:44:31.256Z,95.33
2022-10-18T04:45:33.743Z,95.15
2022-10-18T04:46:35.369Z,95.28
2022-10-18T04:47:37.895Z,95.32
2022-10-18T04:48:39.484Z,95.21
2022-10-18T04:49:42.050Z,95.34
2022-10-18T04:50:43.716Z,95.40
2022-10-18T04:51:46.259Z,95.33
2022-10-18T04:53:52.555Z,95.56
2022-10-18T04:54:54.063Z,95.38
2022-10-18T04:55:56.573Z,95.58
2022-10-18T04:56:58.307Z,95.58
2022-10-18T04:58:00.894Z,95.60
2022-10-18T04:59:02.699Z,95.54
2022-10-18T05:00:06.460Z,95.67
2022-10-18T05:01:10.779Z,95.53
2022-10-18T05:02:12.422Z,95.56
2022-10-18T05:03:15.115Z,95.56
2022-10-18T05:04:16.701Z,95.38
2022-10-18T05:05:19.263Z,95.58
2022-10-18T05:06:21.586Z,95.67
2022-10-18T05:07:24.090Z,95.67
2022-10-18T05:08:27.132Z,95.48
2022-10-18T05:09:30.100Z,95.56
2022-10-18T05:10:31.768Z,95.55
2022-10-18T05:11:34.300Z,95.79
2022-10-18T05:12:36.029Z,95.56
2022-10-18T05:13:38.917Z,95.55
2022-10-18T05:14:40.521Z,95.52
2022-10-18T05:15:43.013Z,95.62
2022-10-18T05:16:44.627Z,95.57
2022-10-18T05:17:48.011Z,95.64
2022-10-18T05:18:50.061Z,95.61
2022-10-18T05:19:52.669Z,95.80
2022-10-18T05:20:54.207Z,95.74
2022-10-18T05:21:57.129Z,95.63
2022-10-18T05:22:59.194Z,95.76
2022-10-18T05:24:03.266Z,95.71
2022-10-18T05:25:06.947Z,95.75
2022-10-18T05:26:09.893Z,95.72
2022-10-18T05:27:11.610Z,95.71
2022-10-18T05:28:38.641Z,95.69
2022-10-18T05:29:37.153Z,95.63
2022-10-18T05:30:39.177Z,95.76
2022-10-18T05:31:41.815Z,95.62
2022-10-18T05:32:43.549Z,95.68
2022-10-18T05:33:46.131Z,95.69
2022-10-18T05:34:47.659Z,95.73
2022-10-18T05:35:50.121Z,95.77
2022-10-18T05:36:51.852Z,95.99
2022-10-18T05:37:54.489Z,95.69
2022-10-18T05:38:58.638Z,95.82
2022-10-18T05:40:05.847Z,95.77
2022-10-18T05:41:07.598Z,95.74
2022-10-18T05:42:10.151Z,95.77
2022-10-18T05:43:11.713Z,95.73
2022-10-18T05:44:14.232Z,95.65
2022-10-18T05:45:15.970Z,95.65
2022-10-18T05:46:18.529Z,95.67
2022-10-18T05:47:20.097Z,95.74
2022-10-18T05:48:22.659Z,95.77
2022-10-18T05:49:25.205Z,95.75
2022-10-18T05:50:26.930Z,95.73
2022-10-18T05:51:29.591Z,95.66
2022-10-18T05:52:31.458Z,95.92
2022-10-18T05:53:38.276Z,95.89
2022-10-18T05:54:40.632Z,95.93
2022-10-18T05:55:44.509Z,95.79
2022-10-18T05:56:47.031Z,95.84
2022-10-18T05:57:49.542Z,95.84
2022-10-18T05:58:52.648Z,95.74
2022-10-18T05:59:54.233Z,95.76
2022-10-18T06:01:01.010Z,95.88
2022-10-18T06:02:02.793Z,95.64
2022-10-18T06:03:05.577Z,95.75
2022-10-18T06:04:07.978Z,95.90
2022-10-18T06:05:10.795Z,95.74
2022-10-18T06:06:13.587Z,95.84
2022-10-18T06:07:17.266Z,95.89
2022-10-18T06:08:19.076Z,95.79
2022-10-18T06:09:22.301Z,95.91
2022-10-18T06:10:23.908Z,95.79
2022-10-18T06:11:27.943Z,95.69
2022-10-18T06:12:29.690Z,95.96
2022-10-18T06:13:33.707Z,95.87
2022-10-18T06:14:36.036Z,95.81
2022-10-18T06:15:38.522Z,95.79
2022-10-18T06:16:40.067Z,95.91
2022-10-18T06:17:42.543Z,95.78
2022-10-18T06:18:47.680Z,95.92
2022-10-18T06:19:50.144Z,95.98
2022-10-18T06:20:56.730Z,95.50
2022-10-18T06:21:59.373Z,95.95
2022-10-18T06:23:00.907Z,95.76
2022-10-18T06:24:03.430Z,95.77
2022-10-18T06:25:06.877Z,95.77
2022-10-18T06:26:12.189Z,95.85
2022-10-18T06:27:15.068Z,95.85
2022-10-18T06:28:18.112Z,95.78
2022-10-18T06:29:19.625Z,95.79
2022-10-18T06:30:22.297Z,95.75
2022-10-18T06:31:23.812Z,95.74
2022-10-18T06:32:26.370Z,95.80
2022-10-18T06:33:27.903Z,95.72
2022-10-18T06:34:30.712Z,95.81
2022-10-18T06:35:32.293Z,95.78
2022-10-18T06:36:34.963Z,95.85
2022-10-18T06:37:38.044Z,95.68
2022-10-18T06:38:40.832Z,95.76
2022-10-18T06:39:42.411Z,95.78
2022-10-18T06:40:44.890Z,95.67
2022-10-18T06:41:47.420Z,95.85
2022-10-18T06:43:00.040Z,95.88
2022-10-18T06:44:13.691Z,95.58
2022-10-18T06:45:15.908Z,95.81
2022-10-18T06:46:18.412Z,95.86
2022-10-18T06:47:19.975Z,95.76
2022-10-18T06:48:23.064Z,95.73
2022-10-18T06:49:25.631Z,95.70
2022-10-18T06:50:27.226Z,95.69
2022-10-18T06:51:29.727Z,95.84
2022-10-18T06:52:31.614Z,95.71
2022-10-18T06:53:43.701Z,95.64
2022-10-18T06:54:50.330Z,95.81
2022-10-18T06:55:53.090Z,95.86
2022-10-18T06:56:57.441Z,95.75
2022-10-18T06:58:00.410Z,95.74
2022-10-18T06:59:03.222Z,95.95
2022-10-18T07:00:06.305Z,95.81
2022-10-18T07:01:13.370Z,95.78
2022-10-18T07:02:17.346Z,95.82
2022-10-18T07:03:18.896Z,96.06
2022-10-18T07:04:21.411Z,96.00
2022-10-18T07:05:23.139Z,95.89
2022-10-18T07:06:26.013Z,96.04
2022-10-18T07:07:31.331Z,95.93
2022-10-18T07:08:34.166Z,96.05
2022-10-18T07:09:35.741Z,95.91
2022-10-18T07:10:38.824Z,95.97
2022-10-18T07:11:40.389Z,95.84
2022-10-18T07:12:43.399Z,95.84
2022-10-18T07:13:46.250Z,95.98
2022-10-18T07:14:48.753Z,95.83
2022-10-18T07:16:00.177Z,95.96
2022-10-18T07:17:02.692Z,95.79
2022-10-18T07:18:05.816Z,95.83
2022-10-18T07:19:08.445Z,95.85
2022-10-18T07:20:10.551Z,95.72
2022-10-18T07:21:14.446Z,95.71
2022-10-18T07:22:16.922Z,95.64
2022-10-18T07:23:20.901Z,95.66
2022-10-18T07:24:23.508Z,95.64
2022-10-18T07:25:28.396Z,95.73
2022-10-18T07:26:34.979Z,95.94
2022-10-18T07:27:37.419Z,95.73
2022-10-18T07:28:39.986Z,95.80
2022-10-18T07:29:42.880Z,95.76
2022-10-18T07:30:45.348Z,95.68
2022-10-18T07:31:47.990Z,95.69
2022-10-18T07:32:51.098Z,95.41
2022-10-18T07:33:53.866Z,95.97
2022-10-18T07:34:55.383Z,95.79
2022-10-18T07:36:01.872Z,95.61
2022-10-18T07:37:04.430Z,95.52
2022-10-18T07:38:05.981Z,95.65
2022-10-18T07:39:08.578Z,95.53
2022-10-18T07:40:11.766Z,95.52
2022-10-18T07:41:15.412Z,95.56
2022-10-18T07:42:16.987Z,95.39
2022-10-18T07:43:19.518Z,95.57
2022-10-18T07:44:22.272Z,95.58
2022-10-18T07:45:25.245Z,95.38
2022-10-18T07:46:28.184Z,95.30
2022-10-18T07:47:31.344Z,95.53
2022-10-18T07:48:36.794Z,95.39
2022-10-18T07:49:38.347Z,95.38
2022-10-18T07:50:40.843Z,95.20
2022-10-18T07:51:42.939Z,95.40
2022-10-18T07:52:45.973Z,95.25
2022-10-18T07:53:48.083Z,95.16
2022-10-18T07:55:59.090Z,95.20
2022-10-18T07:57:01.647Z,95.39
2022-10-18T07:58:03.400Z,95.17
2022-10-18T07:59:05.954Z,95.31
2022-10-18T08:00:09.029Z,95.31
2022-10-18T08:01:19.984Z,95.07
2022-10-18T08:02:21.521Z,95.04
2022-10-18T08:03:24.045Z,94.95
2022-10-18T08:04:25.639Z,95.01
2022-10-18T08:05:29.434Z,95.16
2022-10-18T08:06:32.297Z,95.06
2022-10-18T08:07:34.163Z,95.11
2022-10-18T08:08:38.418Z,95.18
2022-10-18T08:09:41.006Z,94.89
2022-10-18T08:10:42.549Z,94.95
2022-10-18T08:11:45.466Z,95.10
2022-10-18T08:12:47.100Z,94.87
2022-10-18T08:13:50.313Z,94.94
2022-10-18T08:14:51.857Z,94.71
2022-10-18T08:16:00.589Z,94.80
2022-10-18T08:17:04.595Z,94.87
2022-10-18T08:18:06.203Z,94.79
2022-10-18T08:19:09.132Z,94.82
2022-10-18T08:20:26.173Z,94.99
2022-10-18T08:21:32.864Z,94.59
2022-10-18T08:22:34.463Z,94.61
2022-10-18T08:23:37.711Z,94.85
2022-10-18T08:24:39.213Z,94.46
2022-10-18T08:25:41.685Z,94.50
2022-10-18T08:26:44.208Z,94.51
2022-10-18T08:27:45.779Z,94.58
2022-10-18T08:28:54.328Z,94.68
2022-10-18T08:30:12.381Z,94.64
2022-10-18T08:31:17.208Z,94.38
2022-10-18T08:32:21.051Z,94.35
2022-10-18T08:33:22.594Z,94.25
2022-10-18T08:34:25.331Z,94.17
2022-10-18T08:35:26.963Z,94.17
2022-10-18T08:36:29.471Z,94.01
2022-10-18T08:37:31.339Z,93.95
2022-10-18T08:38:34.910Z,93.84
2022-10-18T08:39:36.787Z,93.84
2022-10-18T08:40:44.496Z,93.69
2022-10-18T08:42:09.475Z,93.42
2022-10-18T08:43:23.417Z,93.49
2022-10-18T08:44:27.433Z,93.69
2022-10-18T08:45:41.931Z,93.59
2022-10-18T08:46:47.747Z,93.45
2022-10-18T08:47:53.568Z,93.61
2022-10-18T08:48:57.845Z,93.36
2022-10-18T08:50:02.062Z,93.45
2022-10-18T08:51:07.667Z,93.38
2022-10-18T08:52:16.138Z,93.21
2022-10-18T08:53:24.747Z,93.16
2022-10-18T08:54:32.068Z,93.42
2022-10-18T08:55:40.327Z,93.46
2022-10-18T08:56:47.622Z,93.29
2022-10-18T08:57:50.728Z,93.34
2022-10-18T08:58:52.249Z,93.25
2022-10-18T08:59:54.897Z,92.98
2022-10-18T09:01:09.634Z,93.03
2022-10-18T09:02:20.520Z,92.70
2022-10-18T09:03:42.234Z,92.61
2022-10-18T09:04:53.245Z,92.75
2022-10-18T09:06:01.336Z,92.97
2022-10-18T09:07:23.399Z,93.21
2022-10-18T09:08:37.375Z,93.06
2022-10-18T09:09:46.372Z,92.89
2022-10-18T09:11:02.216Z,93.09
2022-10-18T09:12:21.358Z,92.80
2022-10-18T09:13:54.859Z,93.05
2022-10-18T09:15:15.911Z,92.82
2022-10-18T09:16:21.863Z,92.96
2022-10-18T09:17:35.444Z,92.87
2022-10-18T09:18:57.264Z,92.97
2022-10-18T09:20:10.976Z,92.53
2022-10-18T09:21:20.902Z,92.51
2022-10-18T09:22:34.780Z,92.53
2022-10-18T09:23:45.194Z,92.25
2022-10-18T09:24:54.158Z,92.45
2022-10-18T09:26:06.991Z,92.11
2022-10-18T09:27:14.371Z,91.93
2022-10-18T09:28:25.657Z,91.89
2022-10-18T09:29:45.582Z,91.91
2022-10-18T09:30:59.524Z,91.91
2022-10-18T09:32:15.184Z,92.05
2022-10-18T09:33:31.645Z,91.97
2022-10-18T09:34:43.446Z,92.09
2022-10-18T09:35:52.259Z,91.94
2022-10-18T09:36:55.653Z,92.10
2022-10-18T09:38:04.623Z,91.76
2022-10-18T09:39:13.156Z,91.84
2022-10-18T09:40:19.508Z,91.72
2022-10-18T09:41:26.597Z,91.54
2022-10-18T09:42:35.029Z,91.42
2022-10-18T09:43:50.161Z,91.60
2022-10-18T09:44:56.640Z,91.71
2022-10-18T09:45:58.487Z,91.63
2022-10-18T09:47:03.714Z,91.63
2022-10-18T09:48:12.251Z,91.25
2022-10-18T09:49:20.055Z,91.44
2022-10-18T09:50:28.597Z,91.27
2022-10-18T09:51:36.037Z,91.26
2022-10-18T09:52:45.352Z,91.11
2022-10-18T09:53:59.658Z,91.01
2022-10-18T09:55:06.579Z,90.97
2022-10-18T09:56:12.655Z,91.18
2022-10-18T09:57:20.407Z,91.01
2022-10-18T09:58:26.617Z,90.95
2022-10-18T09:59:35.328Z,90.86
2022-10-18T10:00:45.494Z,90.71
2022-10-18T10:01:49.191Z,90.75
2022-10-18T10:02:51.750Z,90.70
2022-10-18T10:03:54.502Z,90.62
2022-10-18T10:04:56.310Z,90.90
2022-10-18T10:06:17.299Z,90.59
2022-10-18T10:07:24.652Z,90.73
2022-10-18T10:08:33.492Z,90.55
2022-10-18T10:09:41.046Z,90.58
2022-10-18T10:10:48.363Z,90.69
2022-10-18T10:11:51.557Z,90.19
2022-10-18T10:13:05.577Z,90.17
2022-10-18T10:15:21.279Z,90.39
2022-10-18T10:16:24.569Z,90.34
2022-10-18T10:17:31.995Z,90.17
2022-10-18T10:18:36.434Z,90.44
2022-10-18T10:19:59.727Z,90.26
2022-10-18T10:21:07.236Z,90.16
2022-10-18T10:22:13.228Z,90.26
2022-10-18T10:23:21.107Z,90.40
2022-10-18T10:24:31.237Z,90.22
2022-10-18T10:25:35.820Z,90.47
2022-10-18T10:26:38.863Z,90.41
2022-10-18T10:27:45.793Z,90.28
2022-10-18T10:28:48.778Z,90.00
2022-10-18T10:29:56.982Z,90.16
2022-10-18T10:31:18.954Z,90.23
2022-10-18T10:32:22.860Z,89.69
2022-10-18T10:33:35.313Z,90.08
2022-10-18T10:34:39.808Z,90.28
2022-10-18T10:36:00.158Z,90.02
2022-10-18T10:37:04.773Z,90.25
2022-10-18T10:38:08.180Z,89.90
2022-10-18T10:39:13.096Z,90.07
2022-10-18T10:40:21.856Z,90.02
2022-10-18T10:41:27.536Z,90.09
2022-10-18T10:42:38.099Z,89.66
2022-10-18T10:43:40.959Z,90.15
2022-10-18T10:44:54.964Z,90.04
2022-10-18T10:46:02.258Z,89.82
2022-10-18T10:47:05.564Z,89.94
2022-10-18T10:48:14.211Z,89.84
2022-10-18T10:49:39.555Z,89.88
2022-10-18T10:50:55.793Z,89.83
2022-10-18T10:52:09.128Z,89.72
2022-10-18T10:53:38.977Z,89.73
2022-10-18T10:54:51.279Z,89.48
2022-10-18T10:55:54.795Z,89.53
2022-10-18T10:57:01.882Z,89.42
2022-10-18T10:58:03.487Z,89.38
2022-10-18T10:59:15.305Z,89.48
2022-10-18T11:00:36.810Z,89.36
2022-10-18T11:01:39.321Z,88.90
2022-10-18T11:02:41.283Z,89.02
2022-10-18T11:03:47.829Z,88.80
2022-10-18T11:04:52.448Z,88.61
2022-10-18T11:05:55.304Z,88.73
2022-10-18T11:07:05.290Z,88.38
2022-10-18T11:08:10.856Z,88.35
2022-10-18T11:09:25.869Z,88.04
2022-10-18T11:10:32.640Z,88.08
2022-10-18T11:11:39.161Z,88.46
2022-10-18T11:12:46.672Z,88.09
2022-10-18T11:13:57.023Z,87.96
2022-10-18T11:15:21.546Z,88.05
2022-10-18T11:16:31.810Z,87.79
2022-10-18T11:17:40.836Z,87.84
2022-10-18T11:18:46.204Z,88.01
2022-10-18T11:20:03.600Z,87.66
2022-10-18T11:21:11.368Z,87.66
2022-10-18T11:22:18.927Z,87.52
2022-10-18T11:23:24.333Z,87.24
2022-10-18T11:24:27.291Z,87.45
2022-10-18T11:25:46.752Z,87.32
2022-10-18T11:26:59.317Z,87.07
2022-10-18T11:28:09.464Z,86.90
2022-10-18T11:29:31.828Z,86.88
2022-10-18T11:30:58.761Z,86.50
2022-10-18T11:32:10.837Z,86.66
2022-10-18T11:33:29.605Z,86.76
2022-10-18T11:34:48.888Z,86.74
2022-10-18T11:35:56.707Z,86.24
2022-10-18T11:37:27.193Z,86.19
2022-10-18T11:38:35.398Z,86.46
2022-10-18T11:39:50.829Z,86.05
2022-10-18T11:41:06.317Z,85.86
2022-10-18T11:42:16.761Z,85.12
2022-10-18T11:43:30.210Z,85.27
2022-10-18T11:44:42.419Z,85.32
2022-10-18T11:45:52.416Z,84.84
2022-10-18T11:47:05.492Z,84.92
2022-10-18T11:48:21.946Z,84.70
2022-10-18T11:49:43.804Z,84.77
2022-10-18T11:50:52.778Z,84.73
2022-10-18T11:52:08.481Z,84.66
2022-10-18T11:53:22.307Z,84.74
2022-10-18T11:54:42.234Z,84.97
2022-10-18T11:55:57.733Z,84.46
2022-10-18T11:57:17.428Z,84.46
2022-10-18T11:58:35.380Z,84.67
2022-10-18T11:59:44.311Z,84.41
2022-10-18T12:00:51.583Z,84.46
2022-10-18T12:02:03.697Z,84.44
2022-10-18T12:03:21.091Z,84.54
2022-10-18T12:04:26.009Z,84.27
2022-10-18T12:05:30.356Z,84.41
2022-10-18T12:06:37.358Z,84.76
2022-10-18T12:07:43.825Z,84.24
2022-10-18T12:08:49.842Z,84.05
2022-10-18T12:09:54.927Z,83.95
2022-10-18T12:11:06.037Z,84.20
2022-10-18T12:12:13.583Z,84.03
2022-10-18T12:13:35.917Z,84.08
2022-10-18T12:14:43.773Z,84.17
2022-10-18T12:15:46.936Z,83.90
2022-10-18T12:16:53.615Z,83.55
2022-10-18T12:18:05.188Z,83.42
2022-10-18T12:19:14.451Z,83.22
2022-10-18T12:20:23.775Z,82.91
2022-10-18T12:21:30.194Z,82.76
2022-10-18T12:22:36.388Z,82.53
2022-10-18T12:23:45.979Z,82.33
2022-10-18T12:24:48.540Z,82.18
2022-10-18T12:25:53.945Z,81.90
2022-10-18T12:27:02.085Z,82.07
2022-10-18T12:28:17.664Z,81.52
2022-10-18T12:29:27.203Z,81.29
2022-10-18T12:30:34.289Z,81.43
2022-10-18T12:31:43.452Z,80.91
2022-10-18T12:33:03.337Z,80.93
2022-10-18T12:34:26.936Z,80.73
2022-10-18T12:35:33.073Z,81.06
2022-10-18T12:36:48.735Z,80.64
2022-10-18T12:38:02.401Z,80.85
2022-10-18T12:39:11.690Z,80.56
2022-10-18T12:40:20.459Z,80.52
2022-10-18T12:41:26.590Z,80.31
2022-10-18T12:42:33.042Z,80.62
2022-10-18T12:43:37.549Z,80.19
2022-10-18T12:44:40.075Z,80.29
2022-10-18T12:45:51.490Z,79.73
2022-10-18T12:46:56.411Z,80.41
2022-10-18T12:48:00.446Z,80.15
2022-10-18T12:49:05.683Z,79.84
2022-10-18T12:50:24.374Z,79.90
2022-10-18T12:51:26.939Z,79.59
2022-10-18T12:52:30.513Z,79.70
2022-10-18T12:53:34.494Z,79.15
2022-10-18T12:54:39.715Z,79.54
2022-10-18T12:56:51.021Z,79.36
2022-10-18T12:58:06.311Z,78.91
2022-10-18T12:59:54.057Z,79.12
2022-10-18T13:00:58.132Z,78.70
2022-10-18T13:02:20.709Z,79.14
2022-10-18T13:03:47.710Z,78.85
2022-10-18T13:04:50.476Z,79.44
2022-10-18T13:05:57.724Z,78.89
2022-10-18T13:07:20.541Z,79.21
2022-10-18T13:08:41.980Z,79.21
2022-10-18T13:10:23.095Z,79.46
2022-10-18T13:11:35.819Z,79.40
2022-10-18T13:12:58.515Z,79.39
2022-10-18T13:14:44.063Z,79.31
2022-10-18T13:16:04.377Z,79.38
2022-10-18T13:17:20.337Z,79.46
2022-10-18T13:18:30.525Z,79.03
2022-10-18T13:19:40.462Z,79.10
2022-10-18T13:20:53.089Z,79.51
2022-10-18T13:22:10.600Z,79.30
2022-10-18T13:23:29.461Z,79.07
2022-10-18T13:24:38.753Z,78.92
2022-10-18T13:25:52.357Z,78.91
2022-10-18T13:27:31.559Z,78.77
2022-10-18T13:28:47.608Z,79.13
2022-10-18T13:30:11.235Z,78.76
2022-10-18T13:31:22.981Z,79.00
2022-10-18T13:32:31.218Z,78.75
2022-10-18T13:33:36.382Z,78.90
2022-10-18T13:34:38.973Z,78.76
2022-10-18T13:36:00.166Z,78.38
2022-10-18T13:37:06.059Z,78.66
2022-10-18T13:38:35.825Z,78.42
2022-10-18T13:39:40.645Z,78.87
2022-10-18T13:40:42.582Z,78.85
2022-10-18T13:42:18.238Z,79.08
2022-10-18T13:44:09.649Z,78.80
2022-10-18T13:45:44.515Z,78.97
2022-10-18T13:47:34.739Z,78.74
2022-10-18T13:48:49.451Z,78.89
2022-10-18T13:50:07.703Z,78.68
2022-10-18T13:51:28.331Z,78.62
2022-10-18T13:52:47.365Z,78.60
2022-10-18T13:54:00.242Z,78.53
2022-10-18T13:55:19.345Z,78.82
2022-10-18T13:56:45.533Z,78.36
2022-10-18T13:58:00.257Z,78.51
2022-10-18T13:59:19.507Z,78.69
2022-10-18T14:00:37.742Z,78.75
2022-10-18T14:01:52.940Z,78.69
2022-10-18T14:03:51.390Z,78.84
2022-10-18T14:05:23.024Z,79.27
2022-10-18T14:06:27.655Z,79.25
2022-10-18T14:07:29.842Z,78.73
2022-10-18T14:08:36.961Z,78.91
2022-10-18T14:09:48.893Z,79.04
2022-10-18T14:11:02.701Z,78.87
2022-10-18T14:12:14.015Z,78.69
2022-10-18T14:13:20.175Z,78.59
2022-10-18T14:14:29.907Z,78.53
2022-10-18T14:15:36.540Z,78.86
2022-10-18T14:16:44.572Z,78.49
2022-10-18T14:17:50.327Z,78.48
2022-10-18T14:18:59.063Z,78.30
2022-10-18T14:20:07.389Z,78.62
2022-10-18T14:21:19.935Z,78.37
2022-10-18T14:22:29.123Z,78.35
2022-10-18T14:23:34.601Z,78.36
2022-10-18T14:24:41.558Z,78.45
2022-10-18T14:25:43.571Z,78.30
2022-10-18T14:26:47.669Z,78.07
2022-10-18T14:27:52.274Z,77.87
2022-10-18T14:29:06.002Z,78.42
2022-10-18T14:30:13.116Z,78.08